createdAt,value
2022-12-06T00:01:33.854Z,101395.94
2022-12-06T00:04:03.264Z,101394.22
2022-12-06T00:06:31.821Z,101398.59
2022-12-06T00:08:59.326Z,101404.78
2022-12-06T00:11:28.635Z,101408.28
2022-12-06T00:13:57.592Z,101409.19
2022-12-06T00:16:25.161Z,101410.06
2022-12-06T00:18:54.369Z,101405.66
2022-12-06T00:21:24.463Z,101409.16
2022-12-06T00:23:53.635Z,101404.78
2022-12-06T00:26:21.515Z,101408.28
2022-12-06T00:28:48.711Z,101408.28
2022-12-06T00:31:17.660Z,101410.94
2022-12-06T00:33:44.545Z,101413.56
2022-12-06T00:36:16.617Z,101410.03
2022-12-06T00:38:43.350Z,101408.28
2022-12-06T00:41:12.398Z,101408.28
2022-12-06T00:43:39.517Z,101403.00
2022-12-06T00:46:08.803Z,101395.06
2022-12-06T00:48:35.786Z,101389.81
2022-12-06T00:51:02.478Z,101399.44
2022-12-06T00:53:29.416Z,101400.31
2022-12-06T00:55:56.102Z,101397.69
2022-12-06T00:58:23.375Z,101395.03
2022-12-06T01:00:50.995Z,101395.00
2022-12-06T01:03:17.860Z,101395.94
2022-12-06T01:05:47.203Z,101398.59
2022-12-06T01:08:14.637Z,101401.25
2022-12-06T01:10:42.565Z,101395.97
2022-12-06T01:13:09.363Z,101387.13
2022-12-06T01:15:36.927Z,101384.53
2022-12-06T01:18:04.420Z,101385.38
2022-12-06T01:20:31.364Z,101386.25
2022-12-06T01:22:58.176Z,101388.03
2022-12-06T01:25:26.316Z,101382.72
2022-12-06T01:27:53.574Z,101373.91
2022-12-06T01:30:20.331Z,101377.41
2022-12-06T01:32:47.013Z,101378.34
2022-12-06T01:35:13.796Z,101380.09
2022-12-06T01:37:40.766Z,101377.44
2022-12-06T01:40:08.711Z,101380.97
2022-12-06T01:42:35.460Z,101382.75
2022-12-06T01:45:02.252Z,101385.38
2022-12-06T01:47:39.428Z,101380.97
2022-12-06T01:50:17.686Z,101379.22
2022-12-06T01:52:47.251Z,101386.22
2022-12-06T01:55:14.319Z,101381.78
2022-12-06T01:57:41.052Z,101394.09
2022-12-06T02:00:08.500Z,101382.63
2022-12-06T02:02:37.327Z,101376.50
2022-12-06T02:05:04.196Z,101373.84
2022-12-06T02:07:31.727Z,101380.06
2022-12-06T02:09:58.969Z,101377.44
2022-12-06T02:12:25.750Z,101381.84
2022-12-06T02:14:53.869Z,101369.53
2022-12-06T02:17:41.216Z,101366.88
2022-12-06T02:20:23.032Z,101358.97
2022-12-06T02:23:11.411Z,101357.22
2022-12-06T02:25:51.430Z,101347.50
2022-12-06T02:28:38.757Z,101357.19
2022-12-06T02:31:15.200Z,101351.03
2022-12-06T02:33:47.436Z,101341.34
2022-12-06T02:36:19.388Z,101336.09
2022-12-06T02:38:48.988Z,101349.22
2022-12-06T02:41:24.847Z,101347.41
2022-12-06T02:43:55.773Z,101347.50
2022-12-06T02:46:23.504Z,101336.06
2022-12-06T02:48:51.121Z,101343.03
2022-12-06T02:51:18.272Z,101334.25
2022-12-06T02:53:48.006Z,101336.06
2022-12-06T02:56:16.746Z,101343.03
2022-12-06T02:58:43.395Z,101338.66
2022-12-06T03:01:18.796Z,101345.69
2022-12-06T03:04:03.996Z,101345.69
2022-12-06T03:06:51.692Z,101337.75
2022-12-06T03:09:21.604Z,101340.34
2022-12-06T03:12:02.658Z,101334.25
2022-12-06T03:14:36.084Z,101325.50
2022-12-06T03:17:27.306Z,101321.13
2022-12-06T03:20:04.088Z,101319.38
2022-12-06T03:22:39.848Z,101316.69
2022-12-06T03:25:08.450Z,101308.81
2022-12-06T03:27:35.806Z,101301.75
2022-12-06T03:30:06.669Z,101305.28
2022-12-06T03:32:34.280Z,101298.22
2022-12-06T03:35:06.057Z,101303.50
2022-12-06T03:37:33.619Z,101302.66
2022-12-06T03:40:03.905Z,101316.66
2022-12-06T03:42:31.431Z,101308.78
2022-12-06T03:44:59.314Z,101296.47
2022-12-06T03:47:46.602Z,101303.50
2022-12-06T03:50:23.805Z,101299.97
2022-12-06T03:52:51.816Z,101291.19
2022-12-06T03:55:18.596Z,101290.31
2022-12-06T03:57:45.280Z,101288.50
2022-12-06T04:00:14.666Z,101289.41
2022-12-06T04:02:41.461Z,101288.56
2022-12-06T04:05:08.489Z,101285.00
2022-12-06T04:07:35.274Z,101289.38
2022-12-06T04:10:04.894Z,101284.13
2022-12-06T04:12:52.533Z,101278.78
2022-12-06T04:15:21.652Z,101284.09
2022-12-06T04:18:07.050Z,101287.59
2022-12-06T04:20:54.210Z,101276.22
2022-12-06T04:23:21.252Z,101279.75
2022-12-06T04:25:47.874Z,101266.53
2022-12-06T04:28:33.191Z,101269.16
2022-12-06T04:31:21.965Z,101272.69
2022-12-06T04:34:08.322Z,101262.16
2022-12-06T04:36:53.715Z,101251.53
2022-12-06T04:39:21.088Z,101248.88
2022-12-06T04:42:07.074Z,101250.66
2022-12-06T04:44:33.836Z,101247.16
2022-12-06T04:47:01.331Z,101247.19
2022-12-06T04:49:28.213Z,101242.81
2022-12-06T04:51:55.561Z,101240.97
2022-12-06T04:54:22.629Z,101241.88
2022-12-06T04:56:49.348Z,101237.50
2022-12-06T04:59:16.594Z,101230.50
2022-12-06T05:01:43.241Z,101229.63
2022-12-06T05:04:09.933Z,101242.81
2022-12-06T05:06:36.688Z,101234.91
2022-12-06T05:09:04.494Z,101239.28
2022-12-06T05:11:31.554Z,101234.91
2022-12-06T05:13:59.243Z,101233.09
2022-12-06T05:16:26.119Z,101234.00
2022-12-06T05:18:52.910Z,101242.81
2022-12-06T05:21:22.844Z,101233.13
2022-12-06T05:23:50.308Z,101232.28
2022-12-06T05:26:18.805Z,101230.50
2022-12-06T05:28:46.724Z,101237.53
2022-12-06T05:31:13.760Z,101229.59
2022-12-06T05:33:40.635Z,101227.84
2022-12-06T05:36:12.881Z,101230.47
2022-12-06T05:38:39.741Z,101223.47
2022-12-06T05:41:06.738Z,101230.50
2022-12-06T05:43:33.839Z,101230.50
2022-12-06T05:46:00.798Z,101218.19
2022-12-06T05:48:27.811Z,101223.47
2022-12-06T05:50:54.721Z,101221.72
2022-12-06T05:53:21.815Z,101221.72
2022-12-06T05:55:48.957Z,101227.88
2022-12-06T05:58:16.220Z,101220.84
2022-12-06T06:00:46.740Z,101225.25
2022-12-06T06:03:13.772Z,101231.34
2022-12-06T06:05:50.956Z,101238.41
2022-12-06T06:08:18.386Z,101235.75
2022-12-06T06:10:45.218Z,101233.13
2022-12-06T06:13:12.303Z,101230.44
2022-12-06T06:15:39.951Z,101227.88
2022-12-06T06:18:06.657Z,101219.06
2022-12-06T06:20:33.586Z,101217.31
2022-12-06T06:23:00.320Z,101223.47
2022-12-06T06:25:26.992Z,101219.03
2022-12-06T06:27:53.809Z,101222.53
2022-12-06T06:30:20.606Z,101225.19
2022-12-06T06:32:47.385Z,101230.47
2022-12-06T06:35:16.405Z,101231.38
2022-12-06T06:37:43.275Z,101234.91
2022-12-06T06:40:11.562Z,101233.16
2022-12-06T06:42:38.725Z,101239.28
2022-12-06T06:45:06.339Z,101243.66
2022-12-06T06:47:33.659Z,101233.09
2022-12-06T06:50:00.732Z,101232.25
2022-12-06T06:52:28.302Z,101228.75
2022-12-06T06:54:55.474Z,101230.50
2022-12-06T06:57:23.277Z,101233.16
2022-12-06T06:59:50.257Z,101227.81
2022-12-06T07:02:20.490Z,101232.25
2022-12-06T07:04:47.753Z,101231.38
2022-12-06T07:07:20.793Z,101239.19
2022-12-06T07:09:48.027Z,101226.97
2022-12-06T07:12:15.484Z,101233.97
2022-12-06T07:14:42.279Z,101235.75
2022-12-06T07:17:09.567Z,101237.50
2022-12-06T07:19:36.384Z,101241.03
2022-12-06T07:22:03.042Z,101239.31
2022-12-06T07:24:29.889Z,101237.50
2022-12-06T07:26:57.529Z,101231.38
2022-12-06T07:29:24.261Z,101236.69
2022-12-06T07:31:50.984Z,101236.63
2022-12-06T07:34:17.664Z,101243.69
2022-12-06T07:36:44.499Z,101244.53
2022-12-06T07:39:14.811Z,101245.44
2022-12-06T07:42:01.015Z,101248.06
2022-12-06T07:45:04.623Z,101248.97
2022-12-06T07:47:36.450Z,101247.13
2022-12-06T07:50:06.111Z,101242.75
2022-12-06T07:52:37.253Z,101247.19
2022-12-06T07:55:05.798Z,101249.78
2022-12-06T07:57:32.910Z,101239.31
2022-12-06T08:00:00.500Z,101244.59
2022-12-06T08:02:28.736Z,101243.69
2022-12-06T08:04:55.937Z,101248.09
2022-12-06T08:07:22.852Z,101245.44
2022-12-06T08:09:51.231Z,101238.41
2022-12-06T08:12:17.973Z,101241.03
2022-12-06T08:14:44.825Z,101240.19
2022-12-06T08:17:11.900Z,101241.06
2022-12-06T08:19:38.712Z,101246.34
2022-12-06T08:22:08.797Z,101219.94
2022-12-06T08:24:36.298Z,101228.75
2022-12-06T08:27:03.096Z,101250.72
2022-12-06T08:29:29.824Z,101245.47
2022-12-06T08:31:56.667Z,101247.22
2022-12-06T08:34:23.629Z,101248.97
2022-12-06T08:36:50.324Z,101239.25
2022-12-06T08:39:17.185Z,101249.81
2022-12-06T08:41:56.250Z,101251.59
2022-12-06T08:44:23.186Z,101246.31
2022-12-06T08:46:50.344Z,101255.97
2022-12-06T08:49:17.682Z,101254.25
2022-12-06T08:51:45.021Z,101247.22
2022-12-06T08:54:14.509Z,101247.22
2022-12-06T08:56:41.406Z,101250.72
2022-12-06T08:59:08.472Z,101247.22
2022-12-06T09:01:38.173Z,101244.59
2022-12-06T09:04:07.919Z,101244.59
2022-12-06T09:06:37.244Z,101239.28
2022-12-06T09:09:04.094Z,101246.34
2022-12-06T09:11:30.924Z,101244.56
2022-12-06T09:13:58.090Z,101247.19
2022-12-06T09:16:25.394Z,101236.69
2022-12-06T09:18:52.573Z,101233.13
2022-12-06T09:21:21.900Z,101236.66
2022-12-06T09:23:49.260Z,101239.31
2022-12-06T09:26:16.381Z,101243.69
2022-12-06T09:28:44.734Z,101233.09
2022-12-06T09:31:11.725Z,101243.69
2022-12-06T09:33:38.571Z,101242.81
2022-12-06T09:36:11.530Z,101234.91
2022-12-06T09:38:40.649Z,101228.75
2022-12-06T09:41:37.656Z,101219.94
2022-12-06T09:44:13.431Z,101228.72
2022-12-06T09:47:07.922Z,101226.06
2022-12-06T09:49:52.932Z,101228.75
2022-12-06T09:52:33.532Z,101224.34
2022-12-06T09:55:17.540Z,101219.94
2022-12-06T09:58:26.004Z,101222.59
2022-12-06T10:01:07.120Z,101219.03
2022-12-06T10:04:04.560Z,101217.31
2022-12-06T10:06:39.684Z,101214.66
2022-12-06T10:09:19.581Z,101214.66
2022-12-06T10:11:52.334Z,101213.78
2022-12-06T10:14:43.920Z,101206.75
2022-12-06T10:17:26.329Z,101203.22
2022-12-06T10:20:15.556Z,101202.34
2022-12-06T10:23:02.537Z,101205.03
2022-12-06T10:25:43.178Z,101197.97
2022-12-06T10:28:15.085Z,101198.81
2022-12-06T10:30:52.647Z,101193.56
2022-12-06T10:33:30.426Z,101197.97
2022-12-06T10:36:02.398Z,101190.94
2022-12-06T10:38:46.647Z,101192.66
2022-12-06T10:41:42.474Z,101185.66
2022-12-06T10:44:21.596Z,101197.06
2022-12-06T10:47:07.160Z,101193.56
2022-12-06T10:49:51.971Z,101185.66
2022-12-06T10:52:41.074Z,101193.56
2022-12-06T10:55:11.029Z,101184.78
2022-12-06T10:57:48.948Z,101176.84
2022-12-06T11:00:16.566Z,101179.47
2022-12-06T11:03:11.698Z,101180.38
2022-12-06T11:05:43.262Z,101175.97
2022-12-06T11:08:18.365Z,101171.56
2022-12-06T11:10:46.265Z,101168.03
2022-12-06T11:13:41.133Z,101172.47
2022-12-06T11:16:26.545Z,101162.75
2022-12-06T11:18:56.892Z,101171.53
2022-12-06T11:21:34.576Z,101159.22
2022-12-06T11:24:08.665Z,101160.97
2022-12-06T11:26:38.974Z,101145.22
2022-12-06T11:29:11.180Z,101157.50
2022-12-06T11:31:45.827Z,101164.53
2022-12-06T11:34:23.472Z,101156.63
2022-12-06T11:36:56.646Z,101162.81
2022-12-06T11:39:27.053Z,101150.50
2022-12-06T11:41:56.731Z,101148.72
2022-12-06T11:44:25.926Z,101146.97
2022-12-06T11:47:03.014Z,101143.41
2022-12-06T11:49:35.791Z,101146.03
2022-12-06T11:52:39.310Z,101146.94
2022-12-06T11:55:17.957Z,101139.88
2022-12-06T11:57:53.894Z,101136.41
2022-12-06T12:00:23.759Z,101128.50
2022-12-06T12:02:53.478Z,101132.00
2022-12-06T12:05:23.557Z,101132.00
2022-12-06T12:08:05.850Z,101123.16
2022-12-06T12:10:36.204Z,101123.19
2022-12-06T12:13:30.852Z,101124.03
2022-12-06T12:16:03.102Z,101123.22
2022-12-06T12:18:33.520Z,101118.72
2022-12-06T12:21:01.869Z,101121.38
2022-12-06T12:23:32.552Z,101118.78
2022-12-06T12:26:00.998Z,101123.13
2022-12-06T12:28:30.520Z,101121.47
2022-12-06T12:31:08.548Z,101117.84
2022-12-06T12:33:36.296Z,101119.59
2022-12-06T12:36:02.956Z,101117.81
2022-12-06T12:38:46.247Z,101111.72
2022-12-06T12:41:23.758Z,101111.66
2022-12-06T12:47:14.900Z,101116.19
2022-12-06T12:49:41.694Z,101106.44
2022-12-06T12:52:28.938Z,101107.31
2022-12-06T12:55:14.020Z,101110.78
2022-12-06T12:57:41.978Z,101103.81
2022-12-06T13:00:18.157Z,101105.63
2022-12-06T13:02:49.073Z,101105.59
2022-12-06T13:05:35.406Z,101102.97
2022-12-06T13:08:13.655Z,101102.06
2022-12-06T13:10:43.922Z,101102.91
2022-12-06T13:13:20.478Z,101102.94
2022-12-06T13:15:52.206Z,101103.72
2022-12-06T13:18:29.847Z,101103.78
2022-12-06T13:21:02.685Z,101095.78
2022-12-06T13:23:34.351Z,101103.75
2022-12-06T13:26:14.876Z,101103.75
2022-12-06T13:28:45.863Z,101101.16
2022-12-06T13:31:17.465Z,101096.75
2022-12-06T13:33:51.721Z,101095.88
2022-12-06T13:36:19.584Z,101092.47
2022-12-06T13:38:46.620Z,101095.06
2022-12-06T13:41:54.136Z,101093.22
2022-12-06T13:44:44.790Z,101088.84
2022-12-06T13:47:26.836Z,101093.31
2022-12-06T13:49:59.301Z,101088.03
2022-12-06T13:52:47.271Z,101098.50
2022-12-06T13:55:26.270Z,101091.50
2022-12-06T13:57:56.361Z,101091.53
2022-12-06T14:00:32.068Z,101088.03
2022-12-06T14:03:08.603Z,101094.13
2022-12-06T14:06:15.900Z,101089.75
2022-12-06T14:08:47.075Z,101083.63
2022-12-06T14:11:16.607Z,101090.59
2022-12-06T14:13:55.588Z,101090.59
2022-12-06T14:16:30.926Z,101087.13
2022-12-06T14:18:58.008Z,101091.53
2022-12-06T14:21:31.709Z,101085.41
2022-12-06T14:23:58.837Z,101089.75
2022-12-06T14:26:27.048Z,101083.63
2022-12-06T14:28:56.610Z,101081.81
2022-12-06T14:31:26.903Z,101080.00
2022-12-06T14:33:54.972Z,101082.66
2022-12-06T14:36:34.068Z,101083.53
2022-12-06T14:39:05.996Z,101081.88
2022-12-06T14:41:56.538Z,101088.03
2022-12-06T14:44:31.940Z,101084.44
2022-12-06T14:46:59.395Z,101086.19
2022-12-06T14:49:46.475Z,101080.94
2022-12-06T14:52:22.530Z,101082.78
2022-12-06T14:54:50.271Z,101084.53
2022-12-06T14:57:24.944Z,101076.59
2022-12-06T15:00:28.038Z,101076.63
2022-12-06T15:03:23.393Z,101076.56
2022-12-06T15:06:09.137Z,101079.22
2022-12-06T15:08:37.286Z,101071.28
2022-12-06T15:11:41.689Z,101077.41
2022-12-06T15:14:12.935Z,101084.53
2022-12-06T15:16:40.808Z,101085.44
2022-12-06T15:19:12.582Z,101072.25
2022-12-06T15:21:39.354Z,101087.19
2022-12-06T15:24:24.728Z,101077.53
2022-12-06T15:26:51.611Z,101079.28
2022-12-06T15:29:18.555Z,101073.09
2022-12-06T15:31:49.854Z,101077.53
2022-12-06T15:34:21.737Z,101075.72
2022-12-06T15:36:49.260Z,101076.56
2022-12-06T15:39:16.823Z,101068.66
2022-12-06T15:41:43.870Z,101062.56
2022-12-06T15:44:15.831Z,101080.13
2022-12-06T15:46:43.453Z,101070.50
2022-12-06T15:49:19.050Z,101066.09
2022-12-06T15:51:45.786Z,101069.59
2022-12-06T15:54:21.593Z,101070.47
2022-12-06T15:56:48.861Z,101074.84
2022-12-06T15:59:15.644Z,101073.94
2022-12-06T16:01:51.034Z,101080.13
2022-12-06T16:04:20.088Z,101073.13
2022-12-06T16:06:47.121Z,101072.19
2022-12-06T16:09:15.100Z,101072.22
2022-12-06T16:11:41.792Z,101083.66
2022-12-06T16:14:09.196Z,101084.56
2022-12-06T16:16:42.927Z,101085.44
2022-12-06T16:19:10.157Z,101085.41
2022-12-06T16:21:50.214Z,101080.16
2022-12-06T16:24:17.026Z,101079.28
2022-12-06T16:26:45.247Z,101070.47
2022-12-06T16:29:17.899Z,101080.13
2022-12-06T16:31:45.395Z,101066.03
2022-12-06T16:34:12.250Z,101080.97
2022-12-06T16:36:56.577Z,101074.00
2022-12-06T16:39:23.409Z,101071.38
2022-12-06T16:41:50.181Z,101072.19
2022-12-06T16:44:17.142Z,101074.88
2022-12-06T16:46:44.655Z,101076.63
2022-12-06T16:52:10.078Z,101074.84
2022-12-06T16:54:39.129Z,101082.75
2022-12-06T16:57:05.947Z,101085.41
2022-12-06T16:59:32.809Z,101082.78
2022-12-06T17:01:59.638Z,101086.31
2022-12-06T17:04:26.859Z,101088.09
2022-12-06T17:06:53.961Z,101083.66
2022-12-06T17:09:20.882Z,101079.25
2022-12-06T17:12:02.887Z,101077.47
2022-12-06T17:14:30.128Z,101071.31
2022-12-06T17:16:57.343Z,101080.06
2022-12-06T17:19:28.877Z,101078.41
2022-12-06T17:21:55.621Z,101088.06
2022-12-06T17:24:24.576Z,101085.41
2022-12-06T17:26:54.130Z,101092.44
2022-12-06T17:29:21.762Z,101074.84
2022-12-06T17:31:48.566Z,101084.47
2022-12-06T17:34:15.871Z,101083.59
2022-12-06T17:36:43.214Z,101074.78
2022-12-06T17:39:10.805Z,101083.50
2022-12-06T17:41:56.187Z,101092.38
2022-12-06T17:44:23.057Z,101095.03
2022-12-06T17:46:49.992Z,101088.88
2022-12-06T17:49:19.642Z,101093.25
2022-12-06T17:51:46.501Z,101096.75
2022-12-06T17:54:13.992Z,101094.13
2022-12-06T17:56:46.178Z,101099.41
2022-12-06T17:59:21.010Z,101098.56
2022-12-06T18:04:35.942Z,101093.28
2022-12-06T18:07:02.921Z,101088.03
2022-12-06T18:09:29.742Z,101095.13
2022-12-06T18:11:56.895Z,101094.22
2022-12-06T18:14:23.709Z,101095.94
2022-12-06T18:16:50.606Z,101099.44
2022-12-06T18:19:19.537Z,101104.72
2022-12-06T18:21:47.127Z,101102.13
2022-12-06T18:24:25.628Z,101108.19
2022-12-06T18:26:54.811Z,101103.75
2022-12-06T18:29:23.564Z,101094.88
2022-12-06T18:31:51.715Z,101106.41
2022-12-06T18:34:18.967Z,101096.75
2022-12-06T18:36:46.591Z,101097.69
2022-12-06T18:39:16.397Z,101095.00
2022-12-06T18:41:44.336Z,101089.69
2022-12-06T18:44:11.852Z,101091.44
2022-12-06T18:46:39.414Z,101090.50
2022-12-06T18:49:07.038Z,101079.13
2022-12-06T18:51:36.060Z,101086.13
2022-12-06T18:54:05.181Z,101090.47
2022-12-06T18:56:33.235Z,101087.84
2022-12-06T18:59:02.283Z,101087.84
2022-12-06T19:01:32.043Z,101079.97
2022-12-06T19:04:00.971Z,101076.44
2022-12-06T19:06:30.380Z,101079.09
2022-12-06T19:08:59.942Z,101079.13
2022-12-06T19:11:26.877Z,101078.22
2022-12-06T19:13:55.170Z,101076.41
2022-12-06T19:16:26.756Z,101057.06
2022-12-06T19:18:55.451Z,101078.97
2022-12-06T19:21:23.027Z,101068.56
2022-12-06T19:23:52.385Z,101076.47
2022-12-06T19:26:19.211Z,101076.47
2022-12-06T19:28:46.080Z,101068.50
2022-12-06T19:31:14.063Z,101064.94
2022-12-06T19:33:44.038Z,101072.00
2022-12-06T19:36:25.512Z,101072.84
2022-12-06T19:39:00.359Z,101071.25
2022-12-06T19:41:27.503Z,101067.69
2022-12-06T19:44:13.309Z,101071.06
2022-12-06T19:46:42.824Z,101072.00
2022-12-06T19:49:10.502Z,101073.81
2022-12-06T19:51:42.199Z,101069.41
2022-12-06T19:54:10.416Z,101065.94
2022-12-06T19:56:39.365Z,101062.41
2022-12-06T19:59:11.835Z,101064.16
2022-12-06T20:01:40.770Z,101061.56
2022-12-06T20:04:08.225Z,101064.94
2022-12-06T20:06:35.580Z,101061.47
2022-12-06T20:09:02.690Z,101065.91
2022-12-06T20:11:48.034Z,101064.88
2022-12-06T20:14:18.040Z,101062.22
2022-12-06T20:16:45.076Z,101067.44
2022-12-06T20:19:13.877Z,101066.66
2022-12-06T20:21:42.505Z,101064.03
2022-12-06T20:24:18.964Z,101059.69
2022-12-06T20:26:46.319Z,101064.03
2022-12-06T20:29:13.329Z,101064.84
2022-12-06T20:31:40.213Z,101065.81
2022-12-06T20:34:13.092Z,101062.31
2022-12-06T20:36:41.713Z,101051.59
2022-12-06T20:39:08.885Z,101056.09
2022-12-06T20:41:35.968Z,101048.16
2022-12-06T20:44:02.924Z,101054.38
2022-12-06T20:46:32.560Z,101050.88
2022-12-06T20:49:03.877Z,101050.13
2022-12-06T20:51:31.143Z,101052.56
2022-12-06T20:54:00.968Z,101044.56
2022-12-06T20:56:30.676Z,101044.56
2022-12-06T20:58:59.478Z,101035.78
2022-12-06T21:01:29.673Z,101046.34
2022-12-06T21:03:56.835Z,101037.59
2022-12-06T21:06:25.115Z,101033.03
2022-12-06T21:08:53.497Z,101037.50
2022-12-06T21:11:33.981Z,101037.50
2022-12-06T21:14:21.506Z,101032.19
2022-12-06T21:16:49.917Z,101038.47
2022-12-06T21:19:19.638Z,101042.06
2022-12-06T21:21:53.309Z,101042.00
2022-12-06T21:24:21.649Z,101037.59
2022-12-06T21:26:48.895Z,101040.34
2022-12-06T21:29:28.194Z,101034.16
2022-12-06T21:31:57.560Z,101030.69
2022-12-06T21:34:24.380Z,101041.25
2022-12-06T21:36:51.229Z,101036.03
2022-12-06T21:39:17.967Z,101049.16
2022-12-06T21:41:45.925Z,101043.03
2022-12-06T21:44:13.175Z,101043.94
2022-12-06T21:46:40.089Z,101040.47
2022-12-06T21:49:06.924Z,101040.34
2022-12-06T21:51:33.751Z,101038.56
2022-12-06T21:54:01.619Z,101036.88
2022-12-06T21:56:29.804Z,101034.31
2022-12-06T21:58:57.000Z,101038.72
2022-12-06T22:01:28.017Z,101043.91
2022-12-06T22:03:58.134Z,101050.91
2022-12-06T22:06:25.555Z,101050.00
2022-12-06T22:08:58.876Z,101043.69
2022-12-06T22:11:25.897Z,101038.41
2022-12-06T22:13:59.093Z,101039.19
2022-12-06T22:16:26.750Z,101046.47
2022-12-06T22:18:57.244Z,101042.97
2022-12-06T22:21:26.793Z,101042.19
2022-12-06T22:23:54.002Z,101037.88
2022-12-06T22:26:23.145Z,101040.47
2022-12-06T22:28:50.260Z,101042.22
2022-12-06T22:31:21.728Z,101036.94
2022-12-06T22:33:49.558Z,101032.53
2022-12-06T22:36:16.503Z,101027.25
2022-12-06T22:38:43.398Z,101043.97
2022-12-06T22:41:10.793Z,101037.81
2022-12-06T22:43:38.620Z,101037.03
2022-12-06T22:46:06.242Z,101038.78
2022-12-06T22:48:33.075Z,101029.91
2022-12-06T22:51:14.701Z,101036.13
2022-12-06T22:53:43.530Z,101032.53
2022-12-06T22:56:10.760Z,101031.66
2022-12-06T22:58:37.835Z,101023.69
2022-12-06T23:01:17.085Z,101028.13
2022-12-06T23:03:45.770Z,101022.88
2022-12-06T23:06:13.746Z,101023.66
2022-12-06T23:08:40.742Z,101021.00
2022-12-06T23:11:16.095Z,101004.31
2022-12-06T23:13:43.170Z,101014.09
2022-12-06T23:16:14.946Z,101017.47
2022-12-06T23:18:42.612Z,101007.06
2022-12-06T23:21:18.585Z,101008.84
2022-12-06T23:23:47.635Z,101017.72
2022-12-06T23:26:17.817Z,101016.72
2022-12-06T23:28:45.177Z,101015.00
2022-12-06T23:31:14.180Z,101015.03
2022-12-06T23:33:42.145Z,101004.56
2022-12-06T23:36:09.493Z,101003.59
2022-12-06T23:38:36.457Z,101012.38
2022-12-06T23:41:08.377Z,100998.34
2022-12-06T23:43:35.920Z,101005.41
2022-12-06T23:46:07.480Z,101001.81
2022-12-06T23:48:35.492Z,100994.75
2022-12-06T23:51:06.729Z,101000.91
2022-12-06T23:53:34.396Z,100998.19
2022-12-06T23:56:13.032Z,101006.16
2022-12-06T23:58:40.363Z,100993.81
